Latest Weather Observations for Cocos Island

IDW60801

Issued at 11:35 pm WST Friday 19 September 2014 (issued every 30 minutes, with the page automatically refreshed every 10 minutes)

About weather observations | Map of weather stations | Latest weather observations for WA | Other Formats
Station Details ID: 200284 Name: COCOS ISLAND AIRPORT Lat: -12.19 Lon: 96.83 Height: 3.0 m
Data from the previous 72 hours. | See also: Recent months at Cocos Island
Date/Time
WST
Temp
°C
App
Temp
°C
Dew
Point
Rel
Hum
%
Delta-T
°C
Wind Press
QNH
hPa
Press
MSL
hPa
Rain
since 9 am
mm
Dir
 
Spd
km/h
Gust
km/h
Spd
kts
Gust
kts
19/11:30pm 26.6 27.5 21.6 74 3.3 E 19 24 10 13 1014.6 - 0.0
19/11:00pm 26.6 27.5 21.6 74 3.3 E 19 26 10 14 1014.6 1014.6 0.0
19/10:30pm 26.6 27.3 21.5 73 3.4 E 20 26 11 14 1014.5 - 0.0
19/10:00pm 26.7 27.4 21.6 73 3.4 E 20 28 11 15 1014.4 - 0.0
19/09:30pm 26.8 27.5 21.5 72 3.5 ESE 20 30 11 16 1014.1 - 0.0
19/09:00pm 26.9 27.4 22.0 74 3.3 E 22 30 12 16 1013.9 - 0.0
19/08:30pm 27.0 27.0 21.6 72 3.6 E 24 33 13 18 1013.6 - 0.0
19/08:00pm 27.0 26.9 21.4 71 3.7 E 24 32 13 17 1013.3 1013.3 0.0
19/07:30pm 27.1 27.2 21.9 73 3.5 E 24 32 13 17 1012.7 - 0.0
19/07:00pm 27.3 26.9 21.6 71 3.8 E 26 35 14 19 1012.5 - 0.0
19/06:30pm 27.6 26.9 21.1 67 4.3 E 26 35 14 19 1012.3 - 0.0
19/06:00pm 27.9 27.2 21.1 66 4.5 ESE 26 33 14 18 1012.1 - 0.0
19/05:30pm 27.7 27.1 20.6 65 4.7 ESE 24 33 13 18 1012.1 - 0.0
19/05:00pm 27.8 26.7 21.0 66 4.5 E 28 37 15 20 1011.8 1011.8 0.0
19/04:30pm 28.0 27.5 21.4 67 4.4 ESE 26 35 14 19 1011.8 - 0.0
19/04:00pm 28.6 27.8 20.9 63 5.1 E 26 32 14 17 1012.3 - 0.0
19/03:30pm 28.6 28.2 21.7 66 4.6 E 26 35 14 19 1012.6 - 0.0
19/03:00pm 28.3 27.6 21.1 65 4.8 E 26 35 14 19 1012.7 - 0.0
19/02:30pm 28.3 28.0 21.1 65 4.8 E 24 32 13 17 1013.2 - 0.0
19/02:00pm 28.3 27.2 21.1 65 4.8 E 28 35 15 19 1013.6 1013.6 0.0
19/01:30pm 28.3 26.6 20.6 63 5.1 E 30 37 16 20 1014.2 - 0.0
19/01:00pm 28.3 26.5 21.2 65 4.7 E 32 37 17 20 1014.4 - 0.0
19/12:30pm 28.1 27.0 21.7 68 4.3 E 30 37 16 20 1014.7 - 0.0
19/12:00pm 28.1 26.1 20.8 64 4.8 E 32 39 17 21 1015.1 - 0.0
19/11:30am 28.0 26.6 21.1 66 4.6 E 30 37 16 20 1015.4 - 0.0
19/11:00am 28.0 26.6 21.2 66 4.5 E 30 39 16 21 1015.5 1015.5 0.0
19/10:30am 27.6 25.6 20.8 66 4.5 E 32 39 17 21 1015.1 - 0.0
19/10:00am 27.4 25.8 20.7 67 4.4 E 30 37 16 20 1015.0 - 0.0
19/09:30am 27.4 26.0 21.1 68 4.2 E 30 37 16 20 1014.8 - 0.0
19/09:00am 27.0 25.0 19.9 65 4.6 E 30 37 16 20 1014.4 - 0.0
19/08:30am 26.5 24.6 20.2 68 4.1 E 30 39 16 21 1014.2 - 0.0
19/08:00am 26.3 24.9 20.5 70 3.8 E 28 37 15 20 1013.9 1013.9 0.0
19/07:30am 26.4 24.7 19.8 67 4.3 E 28 39 15 21 1013.6 - 0.0
19/07:00am 26.3 24.8 20.2 69 4.0 E 28 37 15 20 1013.2 - 0.0
19/06:30am 26.1 24.7 20.4 71 3.7 E 28 35 15 19 1013.0 - 0.0
19/06:00am 26.0 25.4 20.5 71 3.6 E 24 33 13 18 1012.8 - 0.0
19/05:30am 26.2 24.5 19.9 68 4.1 ESE 28 39 15 21 1012.6 - 0.0
19/05:00am 26.2 24.3 20.1 69 4.0 E 30 39 16 21 1012.6 1012.6 0.0
19/04:30am 26.3 24.7 20.0 68 4.1 E 28 37 15 20 1012.7 - 0.0
19/04:00am 26.3 24.2 19.8 67 4.2 E 30 39 16 21 1012.8 - 0.0
19/03:30am 26.2 24.6 20.7 71 3.6 E 30 37 16 20 1012.7 - 0.0
19/03:00am 26.4 24.6 20.4 69 3.9 E 30 37 16 20 1013.0 - 0.0
19/02:30am 26.4 25.6 20.8 71 3.7 E 26 35 14 19 1013.3 - 0.0
19/02:00am 26.5 24.9 20.7 70 3.8 E 30 39 16 21 1013.6 1013.6 0.0
19/01:30am 26.5 24.8 20.6 70 3.9 E 30 39 16 21 1013.9 - 0.0
19/01:00am 26.6 25.0 20.7 70 3.9 E 30 41 16 22 1014.4 - 0.0
19/12:30am 26.6 25.1 20.2 68 4.2 E 28 37 15 20 1014.7 - 0.0
19/12:00am 26.6 25.3 20.7 70 3.9 E 28 37 15 20 1014.9 - 0.0
 
Date/Time
WST
Temp
°C
App
Temp
°C
Dew
Point
Rel
Hum
%
Delta-T
°C
Wind Press
QNH
hPa
Press
MSL
hPa
Rain
since 9 am
mm
Dir
 
Spd
km/h
Gust
km/h
Spd
kts
Gust
kts
18/11:30pm 26.7 24.9 21.1 71 3.7 E 32 44 17 24 1014.9 - 0.0
18/11:00pm 26.8 24.9 20.2 67 4.3 E 30 41 16 22 1015.0 1015.0 0.0
18/10:30pm 26.9 25.4 21.0 70 3.9 E 30 41 16 22 1014.9 - 0.0
18/10:00pm 27.0 25.4 20.8 69 4.1 E 30 39 16 21 1014.8 - 0.0
18/09:30pm 26.5 24.7 20.4 69 4.0 E 30 43 16 23 1014.4 - 0.0
18/09:00pm 26.1 25.1 21.3 75 3.2 E 28 33 15 18 1014.3 - 0.0
18/08:30pm 26.1 24.2 22.1 78 2.7 E 35 43 19 23 1014.0 - 0.0
18/08:00pm 26.4 24.0 21.9 76 3.0 E 37 44 20 24 1013.6 1013.6 0.0
18/07:30pm 27.0 26.3 21.1 70 3.9 E 26 35 14 19 1013.4 - 0.0
18/07:00pm 27.3 26.6 21.1 69 4.1 E 26 35 14 19 1013.0 - 0.0
18/06:30pm 27.5 26.0 20.3 65 4.7 E 28 37 15 20 1012.6 - 0.0
18/06:00pm 27.8 26.3 20.2 63 5.0 E 28 37 15 20 1012.4 - 0.0
18/05:30pm 27.8 25.8 20.0 62 5.1 E 30 39 16 21 1012.2 - 0.0
18/05:00pm 28.2 26.4 19.6 59 5.6 E 28 37 15 20 1012.2 1012.2 0.0
18/04:30pm 28.1 26.1 20.7 64 4.9 E 32 41 17 22 1012.1 - 0.0
18/04:00pm 28.5 27.2 20.6 62 5.2 E 28 39 15 21 1012.2 - 0.0
18/03:30pm 28.4 26.1 19.3 57 5.9 E 30 41 16 22 1012.3 - 0.0
18/03:00pm 28.0 25.9 19.7 60 5.4 ESE 30 41 16 22 1012.5 - 0.0
18/02:30pm 27.6 25.6 19.9 63 5.0 ESE 30 37 16 20 1012.7 - 0.0
18/02:00pm 26.7 25.6 21.8 74 3.3 ESE 30 43 16 23 1013.0 1013.0 0.0
18/01:55pm 26.5 24.8 21.4 73 3.4 ESE 32 43 17 23 1013.2 - 0.0
18/01:30pm 27.0 26.0 21.9 73 3.4 ESE 30 41 16 22 1013.4 - 0.0
18/01:00pm 27.6 25.9 21.3 68 4.2 ESE 32 39 17 21 1013.7 - 0.0
18/12:30pm 28.0 26.1 20.9 65 4.7 ESE 32 43 17 23 1014.0 - 0.0
18/12:00pm 27.0 24.5 20.9 69 4.0 ESE 35 50 19 27 1014.3 - 0.0
18/11:30am 27.6 25.8 21.1 67 4.3 ESE 32 41 17 22 1014.6 - 0.0
18/11:00am 27.6 25.2 20.4 65 4.7 ESE 33 46 18 25 1014.8 1014.8 0.0
18/10:30am 27.6 25.6 20.8 66 4.5 ESE 32 41 17 22 1014.8 - 0.0
18/10:00am 27.3 24.7 19.9 64 4.8 E 33 44 18 24 1014.6 - 0.0
18/09:30am 27.1 24.7 20.4 66 4.4 E 33 44 18 24 1014.3 - 0.0
18/09:00am 26.6 24.3 20.2 68 4.2 E 32 44 17 24 1014.1 - 0.0
18/08:30am 26.7 24.1 19.6 65 4.6 E 32 41 17 22 1013.7 - 0.0
18/08:00am 26.4 24.0 19.1 64 4.7 E 30 41 16 22 1013.2 1013.2 0.0
18/07:30am 26.2 24.3 20.2 69 3.9 E 30 44 16 24 1012.8 - 0.0
18/07:00am 26.4 23.4 19.8 67 4.3 ESE 35 46 19 25 1012.6 - 0.0
18/06:30am 26.2 24.4 20.4 70 3.8 E 30 39 16 21 1012.2 - 0.0
18/06:00am 26.1 24.5 20.1 69 3.9 E 28 41 15 22 1012.1 - 0.0
18/05:30am 25.9 23.4 20.9 74 3.3 E 35 44 19 24 1012.2 - 0.0
18/05:00am 26.3 24.2 21.0 72 3.5 E 33 46 18 25 1012.0 1012.0 0.0
18/04:30am 26.3 24.8 21.0 72 3.5 E 30 43 16 23 1012.2 - 0.0
18/04:00am 26.3 24.7 20.8 71 3.6 ESE 30 43 16 23 1012.1 - 0.0
18/03:30am 26.3 24.9 20.5 70 3.8 E 28 41 15 22 1012.4 - 0.0
18/03:00am 26.5 24.1 20.4 69 4.0 E 33 41 18 22 1012.6 - 0.0
18/02:30am 26.3 24.9 21.2 73 3.4 E 30 39 16 21 1013.0 - 0.0
18/02:00am 26.5 23.9 20.7 70 3.8 E 35 44 19 24 1013.2 1013.2 0.0
18/01:30am 26.5 24.2 21.2 72 3.5 E 35 46 19 25 1013.5 - 0.0
18/01:00am 26.5 24.7 21.2 72 3.5 E 32 43 17 23 1013.8 - 0.0
18/12:30am 26.6 24.1 20.8 70 3.8 E 35 46 19 25 1014.1 - 0.0
18/12:00am 26.8 24.5 20.6 69 4.1 E 33 41 18 22 1014.2 - 0.0
 
Date/Time
WST
Temp
°C
App
Temp
°C
Dew
Point
Rel
Hum
%
Delta-T
°C
Wind Press
QNH
hPa
Press
MSL
hPa
Rain
since 9 am
mm
Dir
 
Spd
km/h
Gust
km/h
Spd
kts
Gust
kts
17/11:30pm 26.8 24.5 20.6 69 4.1 E 33 46 18 25 1014.2 - 0.0
17/11:00pm 26.8 25.6 20.9 70 3.9 ESE 28 39 15 21 1014.1 1014.1 0.0
17/10:30pm 26.9 24.9 20.0 66 4.5 E 30 39 16 21 1014.1 - 0.0
17/10:00pm 26.8 25.2 20.7 69 4.0 E 30 43 16 23 1013.8 - 0.0
17/09:30pm 26.9 25.0 20.2 66 4.4 ESE 30 41 16 22 1013.5 - 0.0
17/09:00pm 26.9 24.5 20.0 66 4.5 ESE 32 43 17 23 1012.9 - 0.0
17/08:30pm 26.8 25.1 20.6 69 4.1 E 30 43 16 23 1012.7 - 0.0
17/08:00pm 26.9 25.2 20.5 68 4.2 ESE 30 43 16 23 1012.4 1012.4 0.0
17/07:30pm 26.9 25.2 20.5 68 4.2 ESE 30 39 16 21 1012.0 - 0.0
17/07:20pm 26.9 25.4 20.3 67 4.3 E 28 46 15 25 1011.9 - 0.0
17/07:00pm 27.2 25.6 20.8 68 4.2 E 30 41 16 22 1011.6 - 0.0
17/06:30pm 27.4 25.9 20.9 67 4.3 E 30 41 16 22 1011.3 - 0.0
17/06:00pm 27.8 26.2 20.8 65 4.6 E 30 43 16 23 1011.2 - 0.0
17/05:30pm 28.0 25.7 20.6 64 4.9 E 33 43 18 23 1011.1 - 0.0
17/05:00pm 28.1 25.8 21.2 66 4.6 E 35 43 19 23 1010.8 1010.8 0.0
17/04:30pm 28.2 25.8 21.0 65 4.8 E 35 44 19 24 1010.8 - 0.0
17/04:00pm 28.2 26.2 21.1 65 4.7 E 33 44 18 24 1011.0 - 0.0
17/03:30pm 28.0 25.3 21.2 66 4.5 E 37 44 20 24 1011.2 - 0.0
17/03:00pm 28.2 25.8 21.1 65 4.7 E 35 44 19 24 1011.4 - 0.0
17/02:30pm 28.2 25.8 21.0 65 4.8 E 35 44 19 24 1011.6 - 0.0
17/02:00pm 28.2 25.8 21.8 68 4.3 E 37 44 20 24 1012.0 1012.0 0.0
17/01:30pm 28.1 25.9 21.5 67 4.4 E 35 46 19 25 1012.5 - 0.0
17/01:00pm 27.5 24.8 20.5 65 4.6 E 35 43 19 23 1013.0 - 0.0
17/12:30pm 27.8 25.5 21.2 67 4.4 E 35 44 19 24 1013.4 - 0.0
17/12:00pm 27.5 25.7 21.2 68 4.2 E 32 43 17 23 1013.8 - 0.0
17/11:30am 27.7 24.8 20.0 63 5.0 E 35 46 19 25 1013.9 - 0.0
17/11:00am 27.5 25.1 20.3 65 4.7 E 33 41 18 22 1014.0 1014.0 7.6
17/10:30am 27.5 24.9 19.6 62 5.1 E 32 41 17 22 1014.0 - 7.6
17/10:00am 27.4 24.8 19.4 61 5.2 E 32 41 17 22 1013.8 - 7.6
17/09:30am 26.8 24.1 19.2 63 4.9 E 32 43 17 23 1013.4 - 7.6
17/09:00am 26.7 23.1 19.4 64 4.7 E 37 44 20 24 1013.1 - 7.6
17/08:30am 26.4 23.7 19.6 66 4.4 E 33 41 18 22 1012.7 - 7.6
17/08:00am 26.0 23.6 19.0 65 4.5 E 30 39 16 21 1012.5 1012.5 7.6
17/07:30am 26.0 23.2 19.1 65 4.4 E 32 41 17 22 1012.1 - 7.6
17/07:00am 25.9 23.2 19.6 68 4.1 E 33 44 18 24 1011.7 - 7.6
17/06:30am 26.0 24.2 19.5 67 4.2 E 28 37 15 20 1011.5 - 7.6
17/06:00am 26.0 24.3 20.5 71 3.6 E 30 39 16 21 1011.3 - 7.6
17/05:30am 26.1 23.5 19.4 66 4.3 E 32 39 17 21 1011.0 - 7.6
17/05:00am 26.1 24.3 20.3 70 3.8 E 30 37 16 20 1010.9 1010.9 7.6
17/04:30am 26.1 24.7 20.4 71 3.7 E 28 39 15 21 1011.0 - 7.6
17/04:00am 26.2 24.8 20.4 70 3.8 E 28 35 15 19 1011.0 - 7.6
17/03:30am 26.0 25.0 21.2 75 3.2 ESE 28 37 15 20 1011.4 - 7.6
17/03:00am 26.2 25.4 20.9 72 3.5 E 26 35 14 19 1011.7 - 7.6
17/02:30am 26.2 24.6 20.7 71 3.6 E 30 39 16 21 1012.0 - 7.6
17/02:00am 26.3 25.3 21.3 74 3.3 E 28 37 15 20 1012.3 1012.3 7.6
17/01:30am 26.5 25.4 21.1 72 3.6 E 28 41 15 22 1012.5 - 7.6

Other Formats:

Comma delimited format used in spreadsheet applications
http://www.bom.gov.au/fwo/IDW60801/IDW60801.96996.axf

JavaScript Object Notation format (JSON) in row-major order
http://www.bom.gov.au/fwo/IDW60801/IDW60801.96996.json